»·PEaware :: WAT169 KSNA-KSBA

WAT169 :: KSNA-KSBA

FLIGHT INFORMATION

Flight Status: Arrived
Operator:
Walker Air Transport
More flights by this operator :: More flights under this callsign
Pilot: Marty P. (27464)
Aircraft: BEECH AIRCRAFT SUPER KING AIR 350
(B350)
More flights by this aircraft type
Origin: KSNA John Wayne-Orange Co
United States
Destination: KSBA Santa Barbara Mun
United States
More flights between these airports :: More routes between these airports
Route: SXC V208 VTU VTU282 KWANG
File this flight plan on PilotEdge
Remarks:
Altitude:
(Current/Filed)
8,000ft
Speed:
(Current/Filed)
300kts
Departed: 21-Feb-21 11:41 AM
Arrived: 21-Feb-21 12:17 PM
Distance/Time
Traveled:
108nm/0:36
Distance/Time
To Go:
Arrived

Flight Plot

Page will automatically refresh every two minutes.


Map Options




Map Legend


Flown Route
Filed Route
Departure Airport
Arrival Airport
Navaid (VOR, NDB)
Fix

Horizontal Profiles

Position Reports

Time Latitude Longitude Heading Altitude Ground
Speed
21-Feb-21 11:32 33.671588 -117.867371 209 61ft 0kts
21-Feb-21 11:33 33.671588 -117.867371 209 61ft 0kts
21-Feb-21 11:34 33.671588 -117.867371 209 61ft 0kts
21-Feb-21 11:35 33.671588 -117.867371 209 61ft 0kts
21-Feb-21 11:36 33.671490 -117.868281 299 61ft 8kts
21-Feb-21 11:37 33.668769 -117.871288 220 61ft 20kts
21-Feb-21 11:38 33.667551 -117.872942 288 61ft 0kts
21-Feb-21 11:39 33.667608 -117.873093 296 61ft 11kts
21-Feb-21 11:40 33.686390 -117.862808 28 613ft 129kts
21-Feb-21 11:41 33.726204 -117.839905 31 2134ft 168kts
21-Feb-21 11:42 33.711123 -117.803779 190 3898ft 186kts
21-Feb-21 11:43 33.660451 -117.818757 191 5734ft 191kts
21-Feb-21 11:44 33.609416 -117.836293 211 7583ft 193kts
21-Feb-21 11:45 33.558741 -117.875866 212 8021ft 253kts
21-Feb-21 11:46 33.494988 -117.925204 212 8005ft 285kts
21-Feb-21 11:47 33.428343 -117.976537 212 7999ft 286kts
21-Feb-21 11:48 33.367891 -118.035492 253 8010ft 284kts
21-Feb-21 11:49 33.368386 -118.130012 272 7972ft 285kts
21-Feb-21 11:50 33.370742 -118.225168 272 7972ft 286kts
21-Feb-21 11:51 33.373118 -118.320502 272 7972ft 286kts
21-Feb-21 11:52 33.378968 -118.414896 290 7969ft 284kts
21-Feb-21 11:53 33.424747 -118.490826 312 7972ft 282kts
21-Feb-21 11:54 33.475851 -118.562255 311 7972ft 283kts
21-Feb-21 11:55 33.526493 -118.634347 311 7971ft 283kts
21-Feb-21 11:56 33.576908 -118.706452 310 7971ft 282kts
21-Feb-21 11:57 33.627333 -118.778721 310 7971ft 282kts
21-Feb-21 11:58 33.677655 -118.850971 310 7987ft 282kts
21-Feb-21 11:59 33.727801 -118.923010 310 7991ft 278kts
21-Feb-21 12:00 33.777382 -118.993668 316 7990ft 275kts
21-Feb-21 12:01 33.847767 -119.021824 355 7997ft 272kts
21-Feb-21 12:02 33.923018 -119.028555 355 7980ft 272kts
21-Feb-21 12:03 33.998526 -119.036140 355 7964ft 272kts
21-Feb-21 12:04 34.073515 -119.044029 355 7999ft 271kts
21-Feb-21 12:05 34.132711 -119.092738 292 8004ft 274kts
21-Feb-21 12:06 34.167460 -119.174547 299 7871ft 279kts
21-Feb-21 12:07 34.202714 -119.256487 297 6343ft 268kts
21-Feb-21 12:08 34.235569 -119.335921 298 4828ft 262kts
21-Feb-21 12:09 34.268007 -119.414246 297 4013ft 265kts
21-Feb-21 12:10 34.301758 -119.493697 298 4001ft 263kts
21-Feb-21 12:11 34.339407 -119.569183 304 3718ft 265kts
21-Feb-21 12:12 34.378797 -119.643582 303 3005ft 254kts
21-Feb-21 12:13 34.415726 -119.713309 303 2748ft 234kts
21-Feb-21 12:14 34.431233 -119.781110 259 1413ft 175kts
21-Feb-21 12:15 34.427981 -119.828525 266 145ft 110kts
21-Feb-21 12:16 34.428703 -119.842009 345 15ft 0kts
21-Feb-21 12:17 34.428788 -119.842035 345 15ft 4kts
21-Feb-21 12:18 34.430926 -119.839062 70 15ft 22kts
21-Feb-21 12:19 34.432558 -119.834638 47 15ft 13kts
21-Feb-21 12:20 34.432927 -119.835891 250 15ft 0kts
21-Feb-21 12:21 34.432927 -119.835891 250 15ft 0kts
21-Feb-21 12:22 34.432927 -119.835891 250 15ft 0kts
21-Feb-21 12:23 34.432927 -119.835891 250 15ft 0kts
21-Feb-21 12:24 34.432927 -119.835891 250 15ft 0kts
21-Feb-21 12:25 34.432927 -119.835891 250 15ft 0kts
21-Feb-21 12:26 34.432927 -119.835891 250 15ft 0kts

Navigation Log

Ident Type
Flight plan parsing failed, navigation log unavailable